Terminal Aerodrome Forecast
Issued by NWS

Home | Current Version | Previous Version | Text Only | Print | Product List | Glossary On
Versions: 1 2 3 4 5 6 7 8 9 10 11 12 13
000
FTUS45 KABQ 260100 AAA
TAFFMN
TAF AMD
KFMN 260139Z 2602/2624 23009KT P6SM OVC100
      TEMPO 2603/2606 2SM -SHSN OVC025
     FM260600 32007KT P6SM VCSH OVC050
     FM260900 VRB03KT P6SM BKN030
     FM261900 27011G19KT P6SM BKN040=

USA.gov is the U.S. government's official web portal to all federal, state and local government web resources and services.